Observations for REGGIO CALABRIA AFB, Italy (LICR)

LICR 240850Z 36011KT CAVOK 30/19 Q1015  
LICR 240750Z 36010KT CAVOK 30/18 Q1015  
LICR 240650Z 01011KT CAVOK 28/19 Q1015  
LICR 240550Z 01010KT CAVOK 27/20 Q1015  
LICR 240450Z 35015KT CAVOK 26/20 Q1015  
LICR 240350Z 35011KT CAVOK 25/20 Q1014  
LICR 232150Z 36017KT CAVOK 26/22 Q1014  
LICR 232050Z 36014KT CAVOK 26/21 Q1014  
LICR 231950Z 36015KT CAVOK 27/19 Q1014  
LICR 231850Z 36016KT CAVOK 26/21 Q1013  
LICR 231750Z 36017KT CAVOK 27/21 Q1013  
LICR 231650Z 35020G31KT CAVOK 30/17 Q1013   
LICR 231550Z 35016KT CAVOK 29/19 Q1012  
LICR 231450Z 35013KT CAVOK 31/20 Q1013  
LICR 231350Z 29004KT 240V020 CAVOK 33/14 Q1014  
LICR 231250Z 18004KT 140V200 CAVOK 34/13 Q1013  
LICR 231150Z 26005KT 230V290 CAVOK 33/13 Q1014  
LICR 231050Z 24004KT 190V290 CAVOK 31/15 Q1014  
LICR 230950Z 16009KT 120V230 9999 SCT040 31/13 Q1015
LICR 230850Z VRB06KT 9999 SCT040 32/13 Q1012